Time;durP1;ratioP1;P1;durP2;ratioP2;P2;SDS_P1;SDS_P2;PMS_P1;PMS_P2;Temp;Humidity;BMP_temperature;BMP_pressure;BME280_temperature;BME280_humidity;BME280_pressure;Samples;Min_cycle;Max_cycle;Signal;HPM_P1;HPM_P2
2023/02/20 00:00:00;;;;;;;1.7;1.7;;;;;;;5.2;100.0;102370;;;;
2023/02/20 00:01:00;;;;;;;1.7;1.7;;;;;;;5.2;100.0;102370;;;;
2023/02/20 00:02:00;;;;;;;1.7;1.7;;;;;;;5.2;100.0;102370;;;;
2023/02/20 00:03:00;;;;;;;1.7;1.7;;;;;;;5.2;100.0;102370;;;;
2023/02/20 00:04:00;;;;;;;1.7;1.7;;;;;;;5.2;100.0;102370;;;;
2023/02/20 00:05:00;;;;;;;1.7;1.7;;;;;;;5.2;100.0;102370;;;;
2023/02/20 00:06:00;;;;;;;2.6;2.5;;;;;;;5.2;100.0;102370;;;;
2023/02/20 00:07:00;;;;;;;2.6;2.5;;;;;;;5.2;100.0;102360;;;;
2023/02/20 00:08:00;;;;;;;2.6;2.5;;;;;;;5.2;100.0;102360;;;;
2023/02/20 00:09:00;;;;;;;2.6;2.5;;;;;;;5.2;100.0;102360;;;;
2023/02/20 00:10:00;;;;;;;2.6;2.5;;;;;;;5.2;100.0;102360;;;;
2023/02/20 00:11:00;;;;;;;2.6;2.5;;;;;;;5.2;100.0;102360;;;;
2023/02/20 00:12:00;;;;;;;2.6;2.5;;;;;;;5.2;100.0;102360;;;;
2023/02/20 00:13:00;;;;;;;2.6;2.5;;;;;;;5.2;100.0;102370;;;;
2023/02/20 00:14:00;;;;;;;2.6;2.5;;;;;;;5.2;100.0;102370;;;;
2023/02/20 00:15:00;;;;;;;2.6;2.5;;;;;;;5.2;100.0;102370;;;;
2023/02/20 00:16:00;;;;;;;2.6;2.5;;;;;;;5.2;100.0;102370;;;;
2023/02/20 00:17:00;;;;;;;2.6;2.5;;;;;;;5.2;100.0;102360;;;;
2023/02/20 00:18:00;;;;;;;2.6;2.5;;;;;;;5.2;100.0;102360;;;;
2023/02/20 00:19:00;;;;;;;2.6;2.5;;;;;;;5.3;100.0;102370;;;;
2023/02/20 00:20:01;;;;;;;2.6;2.5;;;;;;;5.3;100.0;102370;;;;
2023/02/20 00:21:00;;;;;;;2.6;2.5;;;;;;;5.3;100.0;102360;;;;
2023/02/20 00:22:00;;;;;;;2.6;2.5;;;;;;;5.3;100.0;102360;;;;
2023/02/20 00:23:00;;;;;;;2.6;2.5;;;;;;;5.3;100.0;102370;;;;
2023/02/20 00:24:00;;;;;;;2.6;2.5;;;;;;;5.3;100.0;102370;;;;
2023/02/20 00:25:00;;;;;;;2.6;2.5;;;;;;;5.4;100.0;102370;;;;
2023/02/20 00:26:00;;;;;;;1.8;1.8;;;;;;;5.4;100.0;102370;;;;
2023/02/20 00:27:00;;;;;;;1.8;1.8;;;;;;;5.4;100.0;102360;;;;
2023/02/20 00:28:00;;;;;;;1.8;1.8;;;;;;;5.4;100.0;102360;;;;
2023/02/20 00:29:00;;;;;;;1.8;1.8;;;;;;;5.3;100.0;102360;;;;
2023/02/20 00:30:00;;;;;;;1.8;1.8;;;;;;;5.3;100.0;102360;;;;
2023/02/20 00:31:00;;;;;;;1.8;1.8;;;;;;;5.4;100.0;102360;;;;
2023/02/20 00:32:01;;;;;;;1.8;1.8;;;;;;;5.4;100.0;102360;;;;
2023/02/20 00:33:00;;;;;;;1.8;1.8;;;;;;;5.5;100.0;102350;;;;
2023/02/20 00:34:00;;;;;;;1.8;1.8;;;;;;;5.5;100.0;102350;;;;
2023/02/20 00:35:00;;;;;;;1.8;1.8;;;;;;;5.5;100.0;102340;;;;
2023/02/20 00:36:00;;;;;;;1.8;1.8;;;;;;;5.5;100.0;102340;;;;
2023/02/20 00:37:00;;;;;;;1.8;1.8;;;;;;;5.5;100.0;102340;;;;
2023/02/20 00:38:00;;;;;;;1.8;1.8;;;;;;;5.5;100.0;102340;;;;
2023/02/20 00:39:00;;;;;;;1.8;1.8;;;;;;;5.4;100.0;102330;;;;
2023/02/20 00:40:00;;;;;;;1.8;1.8;;;;;;;5.4;100.0;102330;;;;
2023/02/20 00:41:00;;;;;;;1.8;1.8;;;;;;;5.4;100.0;102330;;;;
2023/02/20 00:42:00;;;;;;;1.8;1.8;;;;;;;5.4;100.0;102330;;;;
2023/02/20 00:43:00;;;;;;;1.8;1.8;;;;;;;5.4;100.0;102330;;;;
2023/02/20 00:44:00;;;;;;;1.8;1.8;;;;;;;5.4;100.0;102330;;;;
2023/02/20 00:45:00;;;;;;;1.8;1.8;;;;;;;5.5;100.0;102320;;;;
2023/02/20 00:46:00;;;;;;;1.6;1.6;;;;;;;5.5;100.0;102320;;;;
2023/02/20 00:47:00;;;;;;;1.6;1.6;;;;;;;5.5;100.0;102310;;;;
2023/02/20 00:48:00;;;;;;;1.6;1.6;;;;;;;5.5;100.0;102310;;;;
2023/02/20 00:49:00;;;;;;;1.6;1.6;;;;;;;5.4;100.0;102300;;;;
2023/02/20 00:50:00;;;;;;;1.6;1.6;;;;;;;5.4;100.0;102300;;;;
2023/02/20 00:51:00;;;;;;;1.6;1.6;;;;;;;5.4;100.0;102290;;;;
2023/02/20 00:52:00;;;;;;;1.6;1.6;;;;;;;5.4;100.0;102290;;;;
2023/02/20 00:53:00;;;;;;;1.6;1.6;;;;;;;5.4;100.0;102290;;;;
2023/02/20 00:54:00;;;;;;;1.6;1.6;;;;;;;5.4;100.0;102290;;;;
2023/02/20 00:55:00;;;;;;;1.6;1.6;;;;;;;5.4;100.0;102290;;;;
2023/02/20 00:56:00;;;;;;;1.6;1.6;;;;;;;5.4;100.0;102290;;;;
2023/02/20 00:57:00;;;;;;;1.6;1.6;;;;;;;5.4;100.0;102290;;;;
2023/02/20 00:58:00;;;;;;;1.6;1.6;;;;;;;5.4;100.0;102290;;;;
2023/02/20 00:59:00;;;;;;;1.6;1.6;;;;;;;5.4;100.0;102290;;;;
2023/02/20 01:00:00;;;;;;;1.6;1.6;;;;;;;5.4;100.0;102290;;;;
2023/02/20 01:01:00;;;;;;;1.6;1.6;;;;;;;5.4;100.0;102300;;;;
2023/02/20 01:02:00;;;;;;;1.6;1.6;;;;;;;5.4;100.0;102300;;;;
2023/02/20 01:03:00;;;;;;;1.6;1.6;;;;;;;5.4;100.0;102300;;;;
2023/02/20 01:04:00;;;;;;;1.6;1.6;;;;;;;5.4;100.0;102300;;;;
2023/02/20 01:05:00;;;;;;;1.6;1.6;;;;;;;5.5;100.0;102300;;;;
2023/02/20 01:06:00;;;;;;;2.5;2.4;;;;;;;5.5;100.0;102300;;;;
2023/02/20 01:07:00;;;;;;;2.5;2.4;;;;;;;5.4;100.0;102310;;;;
2023/02/20 01:08:00;;;;;;;2.5;2.4;;;;;;;5.4;100.0;102310;;;;
2023/02/20 01:09:00;;;;;;;2.5;2.4;;;;;;;5.5;100.0;102300;;;;
2023/02/20 01:10:00;;;;;;;2.5;2.4;;;;;;;5.5;100.0;102300;;;;
2023/02/20 01:11:00;;;;;;;2.5;2.4;;;;;;;5.4;100.0;102300;;;;
2023/02/20 01:12:00;;;;;;;2.5;2.4;;;;;;;5.4;100.0;102300;;;;
2023/02/20 01:13:00;;;;;;;2.5;2.4;;;;;;;5.4;100.0;102300;;;;
2023/02/20 01:14:00;;;;;;;2.5;2.4;;;;;;;5.4;100.0;102300;;;;
2023/02/20 01:15:00;;;;;;;2.5;2.4;;;;;;;5.4;100.0;102300;;;;
2023/02/20 01:16:00;;;;;;;2.5;2.4;;;;;;;5.4;100.0;102300;;;;
2023/02/20 01:17:01;;;;;;;2.5;2.4;;;;;;;5.4;100.0;102300;;;;
2023/02/20 01:18:00;;;;;;;2.5;2.4;;;;;;;5.4;100.0;102300;;;;
2023/02/20 01:19:00;;;;;;;2.5;2.4;;;;;;;5.4;100.0;102310;;;;
2023/02/20 01:20:00;;;;;;;2.5;2.4;;;;;;;5.4;100.0;102310;;;;
2023/02/20 01:21:00;;;;;;;2.5;2.4;;;;;;;5.4;100.0;102300;;;;
2023/02/20 01:22:01;;;;;;;2.5;2.4;;;;;;;5.4;100.0;102300;;;;
2023/02/20 01:23:00;;;;;;;2.5;2.4;;;;;;;5.4;100.0;102300;;;;
2023/02/20 01:24:00;;;;;;;2.5;2.4;;;;;;;5.4;100.0;102300;;;;
2023/02/20 01:25:00;;;;;;;2.5;2.4;;;;;;;5.4;100.0;102300;;;;
2023/02/20 01:26:00;;;;;;;1.9;1.9;;;;;;;5.4;100.0;102300;;;;
2023/02/20 01:27:00;;;;;;;1.9;1.9;;;;;;;5.4;100.0;102300;;;;
2023/02/20 01:28:00;;;;;;;1.9;1.9;;;;;;;5.4;100.0;102300;;;;
2023/02/20 01:29:00;;;;;;;1.9;1.9;;;;;;;5.4;100.0;102300;;;;
2023/02/20 01:30:00;;;;;;;1.9;1.9;;;;;;;5.4;100.0;102300;;;;
2023/02/20 01:31:00;;;;;;;1.9;1.9;;;;;;;5.3;100.0;102300;;;;
2023/02/20 01:32:01;;;;;;;1.9;1.9;;;;;;;5.3;100.0;102300;;;;
2023/02/20 01:33:00;;;;;;;1.9;1.9;;;;;;;5.3;100.0;102290;;;;
2023/02/20 01:34:00;;;;;;;1.9;1.9;;;;;;;5.3;100.0;102290;;;;
2023/02/20 01:35:00;;;;;;;1.9;1.9;;;;;;;5.3;100.0;102280;;;;
2023/02/20 01:36:00;;;;;;;1.9;1.9;;;;;;;5.3;100.0;102280;;;;
2023/02/20 01:37:00;;;;;;;1.9;1.9;;;;;;;5.3;100.0;102280;;;;
2023/02/20 01:38:05;;;;;;;1.9;1.9;;;;;;;5.3;100.0;102280;;;;
2023/02/20 01:39:00;;;;;;;1.9;1.9;;;;;;;5.3;100.0;102270;;;;
2023/02/20 01:40:00;;;;;;;1.9;1.9;;;;;;;5.3;100.0;102270;;;;
2023/02/20 01:41:00;;;;;;;1.9;1.9;;;;;;;5.3;100.0;102270;;;;
2023/02/20 01:42:02;;;;;;;1.9;1.9;;;;;;;5.3;100.0;102270;;;;
2023/02/20 01:43:01;;;;;;;1.9;1.9;;;;;;;5.2;100.0;102270;;;;
2023/02/20 01:44:00;;;;;;;1.9;1.9;;;;;;;5.2;100.0;102270;;;;
2023/02/20 01:45:10;;;;;;;1.8;1.8;;;;;;;5.3;100.0;102260;;;;
2023/02/20 01:46:10;;;;;;;1.8;1.8;;;;;;;5.3;100.0;102260;;;;
2023/02/20 01:47:04;;;;;;;1.8;1.8;;;;;;;5.3;100.0;102250;;;;
2023/02/20 01:48:01;;;;;;;1.8;1.8;;;;;;;5.3;100.0;102250;;;;
2023/02/20 01:49:03;;;;;;;1.8;1.8;;;;;;;5.2;100.0;102240;;;;
2023/02/20 01:50:04;;;;;;;1.8;1.8;;;;;;;5.2;100.0;102240;;;;
2023/02/20 01:51:00;;;;;;;1.8;1.8;;;;;;;5.2;100.0;102240;;;;
2023/02/20 01:52:04;;;;;;;1.8;1.8;;;;;;;5.2;100.0;102240;;;;
2023/02/20 01:53:03;;;;;;;1.8;1.8;;;;;;;5.3;100.0;102220;;;;
2023/02/20 01:54:00;;;;;;;1.8;1.8;;;;;;;5.3;100.0;102220;;;;
2023/02/20 01:55:03;;;;;;;1.8;1.8;;;;;;;5.2;100.0;102220;;;;
2023/02/20 01:56:04;;;;;;;1.8;1.8;;;;;;;5.2;100.0;102220;;;;
2023/02/20 01:57:01;;;;;;;1.8;1.8;;;;;;;5.3;100.0;102210;;;;
2023/02/20 01:58:08;;;;;;;1.8;1.8;;;;;;;5.3;100.0;102210;;;;
2023/02/20 01:59:01;;;;;;;1.8;1.8;;;;;;;5.2;100.0;102200;;;;
2023/02/20 02:00:06;;;;;;;1.8;1.8;;;;;;;5.2;100.0;102200;;;;
2023/02/20 02:01:02;;;;;;;1.8;1.8;;;;;;;5.2;100.0;102200;;;;
2023/02/20 02:02:00;;;;;;;1.8;1.8;;;;;;;5.2;100.0;102200;;;;
2023/02/20 02:03:05;;;;;;;1.8;1.8;;;;;;;5.1;100.0;102190;;;;
2023/02/20 02:04:02;;;;;;;1.8;1.8;;;;;;;5.1;100.0;102190;;;;
2023/02/20 02:05:01;;;;;;;2.3;2.2;;;;;;;5.1;100.0;102180;;;;
2023/02/20 02:06:02;;;;;;;2.3;2.2;;;;;;;5.1;100.0;102180;;;;
2023/02/20 02:07:01;;;;;;;2.3;2.2;;;;;;;5.1;100.0;102180;;;;
2023/02/20 02:08:02;;;;;;;2.3;2.2;;;;;;;5.1;100.0;102180;;;;
2023/02/20 02:09:04;;;;;;;2.3;2.2;;;;;;;5.1;100.0;102180;;;;
2023/02/20 02:10:03;;;;;;;2.3;2.2;;;;;;;5.1;100.0;102180;;;;
2023/02/20 02:11:03;;;;;;;2.3;2.2;;;;;;;5.1;100.0;102180;;;;
2023/02/20 02:12:00;;;;;;;2.3;2.2;;;;;;;5.1;100.0;102180;;;;
2023/02/20 02:13:01;;;;;;;2.3;2.2;;;;;;;5.1;100.0;102190;;;;
2023/02/20 02:14:00;;;;;;;2.3;2.2;;;;;;;5.1;100.0;102190;;;;
2023/02/20 02:15:00;;;;;;;2.3;2.2;;;;;;;5.1;100.0;102190;;;;
2023/02/20 02:16:08;;;;;;;2.3;2.2;;;;;;;5.1;100.0;102190;;;;
2023/02/20 02:17:08;;;;;;;2.3;2.2;;;;;;;5.1;100.0;102190;;;;
2023/02/20 02:18:12;;;;;;;2.3;2.2;;;;;;;5.1;100.0;102190;;;;
2023/02/20 02:19:00;;;;;;;2.3;2.2;;;;;;;5.1;100.0;102200;;;;
2023/02/20 02:20:03;;;;;;;2.3;2.2;;;;;;;5.1;100.0;102200;;;;
2023/02/20 02:21:10;;;;;;;2.3;2.2;;;;;;;5.0;100.0;102190;;;;
2023/02/20 02:22:10;;;;;;;2.3;2.2;;;;;;;5.0;100.0;102190;;;;
2023/02/20 02:23:10;;;;;;;2.3;2.2;;;;;;;5.1;100.0;102190;;;;
2023/02/20 02:24:10;;;;;;;2.3;2.2;;;;;;;5.1;100.0;102190;;;;
2023/02/20 02:25:10;;;;;;;1.8;1.8;;;;;;;5.1;100.0;102190;;;;
2023/02/20 02:26:03;;;;;;;1.8;1.8;;;;;;;5.1;100.0;102190;;;;
2023/02/20 02:27:01;;;;;;;1.8;1.8;;;;;;;5.1;100.0;102180;;;;
2023/02/20 02:28:10;;;;;;;1.8;1.8;;;;;;;5.1;100.0;102180;;;;
2023/02/20 02:29:10;;;;;;;1.8;1.8;;;;;;;5.1;100.0;102180;;;;
2023/02/20 02:30:10;;;;;;;1.8;1.8;;;;;;;5.1;100.0;102180;;;;
2023/02/20 02:31:00;;;;;;;1.8;1.8;;;;;;;5.1;100.0;102180;;;;
2023/02/20 02:32:10;;;;;;;1.8;1.8;;;;;;;5.1;100.0;102180;;;;
2023/02/20 02:33:05;;;;;;;1.8;1.8;;;;;;;5.0;100.0;102180;;;;
2023/02/20 02:34:00;;;;;;;1.8;1.8;;;;;;;5.0;100.0;102180;;;;
2023/02/20 02:35:00;;;;;;;1.8;1.8;;;;;;;5.1;100.0;102180;;;;
2023/02/20 02:36:10;;;;;;;1.8;1.8;;;;;;;5.1;100.0;102180;;;;
2023/02/20 02:37:07;;;;;;;1.8;1.8;;;;;;;5.1;100.0;102180;;;;
2023/02/20 02:38:07;;;;;;;1.8;1.8;;;;;;;5.1;100.0;102180;;;;
2023/02/20 02:39:10;;;;;;;1.8;1.8;;;;;;;5.1;100.0;102180;;;;
2023/02/20 02:40:06;;;;;;;1.8;1.8;;;;;;;5.1;100.0;102180;;;;
2023/02/20 02:41:10;;;;;;;1.8;1.8;;;;;;;5.0;100.0;102180;;;;
2023/02/20 02:42:10;;;;;;;1.8;1.8;;;;;;;5.0;100.0;102180;;;;
2023/02/20 02:43:10;;;;;;;1.8;1.8;;;;;;;5.0;100.0;102170;;;;
2023/02/20 02:44:10;;;;;;;1.8;1.8;;;;;;;5.0;100.0;102170;;;;
2023/02/20 02:45:05;;;;;;;2.1;2.1;;;;;;;5.1;100.0;102170;;;;
2023/02/20 02:46:05;;;;;;;2.1;2.1;;;;;;;5.1;100.0;102170;;;;
2023/02/20 02:47:04;;;;;;;2.1;2.1;;;;;;;5.1;100.0;102170;;;;
2023/02/20 02:48:05;;;;;;;2.1;2.1;;;;;;;5.1;100.0;102170;;;;
2023/02/20 02:49:04;;;;;;;2.1;2.1;;;;;;;5.1;100.0;102180;;;;
2023/02/20 02:50:04;;;;;;;2.1;2.1;;;;;;;5.1;100.0;102180;;;;
2023/02/20 02:51:05;;;;;;;2.1;2.1;;;;;;;5.1;100.0;102170;;;;
2023/02/20 02:52:01;;;;;;;2.1;2.1;;;;;;;5.1;100.0;102170;;;;
2023/02/20 02:53:01;;;;;;;2.1;2.1;;;;;;;5.1;100.0;102170;;;;
2023/02/20 02:54:10;;;;;;;2.1;2.1;;;;;;;5.1;100.0;102170;;;;
2023/02/20 02:55:00;;;;;;;2.1;2.1;;;;;;;5.1;100.0;102170;;;;
2023/02/20 02:56:20;;;;;;;2.1;2.1;;;;;;;5.1;100.0;102170;;;;
2023/02/20 02:57:10;;;;;;;2.1;2.1;;;;;;;5.2;100.0;102170;;;;
2023/02/20 02:58:01;;;;;;;2.1;2.1;;;;;;;5.2;100.0;102170;;;;
2023/02/20 02:59:01;;;;;;;2.1;2.1;;;;;;;5.2;100.0;102180;;;;
2023/02/20 03:00:03;;;;;;;2.1;2.1;;;;;;;5.2;100.0;102180;;;;
2023/02/20 03:01:00;;;;;;;2.1;2.1;;;;;;;5.2;100.0;102170;;;;
2023/02/20 03:02:05;;;;;;;2.1;2.1;;;;;;;5.2;100.0;102170;;;;
2023/02/20 03:03:10;;;;;;;2.1;2.1;;;;;;;5.3;100.0;102170;;;;
2023/02/20 03:04:04;;;;;;;2.1;2.1;;;;;;;5.3;100.0;102170;;;;
2023/02/20 03:05:03;;;;;;;2.0;2.0;;;;;;;5.4;100.0;102160;;;;
2023/02/20 03:06:11;;;;;;;2.0;2.0;;;;;;;5.4;100.0;102160;;;;
2023/02/20 03:07:04;;;;;;;2.0;2.0;;;;;;;5.3;100.0;102160;;;;
2023/02/20 03:08:00;;;;;;;2.0;2.0;;;;;;;5.3;100.0;102160;;;;
2023/02/20 03:09:10;;;;;;;2.0;2.0;;;;;;;5.3;100.0;102160;;;;
2023/02/20 03:10:02;;;;;;;2.0;2.0;;;;;;;5.3;100.0;102160;;;;
2023/02/20 03:11:10;;;;;;;2.0;2.0;;;;;;;5.3;100.0;102170;;;;
2023/02/20 03:12:01;;;;;;;2.0;2.0;;;;;;;5.3;100.0;102170;;;;
2023/02/20 03:13:03;;;;;;;2.0;2.0;;;;;;;5.4;100.0;102160;;;;
2023/02/20 03:16:00;;;;;;;2.0;2.0;;;;;;;5.5;100.0;102160;;;;
2023/02/20 03:17:00;;;;;;;2.0;2.0;;;;;;;5.5;100.0;102160;;;;
2023/02/20 03:18:12;;;;;;;2.0;2.0;;;;;;;5.5;100.0;102160;;;;
2023/02/20 03:19:02;;;;;;;2.0;2.0;;;;;;;5.5;100.0;102150;;;;
2023/02/20 03:20:02;;;;;;;2.0;2.0;;;;;;;5.5;100.0;102150;;;;
2023/02/20 03:21:04;;;;;;;2.0;2.0;;;;;;;5.6;100.0;102150;;;;
2023/02/20 03:22:01;;;;;;;2.0;2.0;;;;;;;5.6;100.0;102150;;;;
2023/02/20 03:23:02;;;;;;;2.0;2.0;;;;;;;5.6;100.0;102150;;;;
2023/02/20 03:24:02;;;;;;;2.0;2.0;;;;;;;5.6;100.0;102150;;;;
2023/02/20 03:25:04;;;;;;;1.7;1.7;;;;;;;5.6;100.0;102150;;;;
2023/02/20 03:26:04;;;;;;;1.7;1.7;;;;;;;5.6;100.0;102150;;;;
2023/02/20 03:27:01;;;;;;;1.7;1.7;;;;;;;5.7;100.0;102150;;;;
2023/02/20 03:28:04;;;;;;;1.7;1.7;;;;;;;5.7;100.0;102150;;;;
2023/02/20 03:29:03;;;;;;;1.7;1.7;;;;;;;5.6;100.0;102140;;;;
2023/02/20 03:30:01;;;;;;;1.7;1.7;;;;;;;5.6;100.0;102140;;;;
2023/02/20 03:31:06;;;;;;;1.7;1.7;;;;;;;5.6;100.0;102140;;;;
2023/02/20 03:44:01;;;;;;;1.7;1.7;;;;;;;5.7;100.0;102130;;;;
2023/02/20 03:45:03;;;;;;;2.0;2.0;;;;;;;5.7;100.0;102130;;;;
2023/02/20 03:46:03;;;;;;;2.0;2.0;;;;;;;5.7;100.0;102130;;;;
2023/02/20 03:47:01;;;;;;;2.0;2.0;;;;;;;5.8;100.0;102130;;;;
2023/02/20 03:48:03;;;;;;;2.0;2.0;;;;;;;5.8;100.0;102130;;;;
2023/02/20 03:49:06;;;;;;;2.0;2.0;;;;;;;5.8;100.0;102130;;;;
2023/02/20 03:50:00;;;;;;;2.0;2.0;;;;;;;5.8;100.0;102130;;;;
2023/02/20 03:52:00;;;;;;;2.0;2.0;;;;;;;5.8;100.0;102130;;;;
2023/02/20 03:53:00;;;;;;;2.0;2.0;;;;;;;5.8;100.0;102130;;;;
2023/02/20 03:54:00;;;;;;;2.0;2.0;;;;;;;5.8;100.0;102130;;;;
2023/02/20 03:55:00;;;;;;;2.0;2.0;;;;;;;5.8;100.0;102120;;;;
2023/02/20 03:56:03;;;;;;;2.0;2.0;;;;;;;5.8;100.0;102120;;;;
2023/02/20 03:57:02;;;;;;;2.0;2.0;;;;;;;5.8;100.0;102130;;;;
2023/02/20 03:58:03;;;;;;;2.0;2.0;;;;;;;5.8;100.0;102130;;;;
2023/02/20 03:59:03;;;;;;;2.0;2.0;;;;;;;5.9;100.0;102130;;;;
2023/02/20 04:00:04;;;;;;;2.0;2.0;;;;;;;5.9;100.0;102130;;;;
2023/02/20 04:01:02;;;;;;;2.0;2.0;;;;;;;6.0;100.0;102140;;;;
2023/02/20 04:02:03;;;;;;;2.0;2.0;;;;;;;6.0;100.0;102140;;;;
2023/02/20 04:03:04;;;;;;;2.0;2.0;;;;;;;5.9;100.0;102130;;;;
2023/02/20 04:04:02;;;;;;;2.0;2.0;;;;;;;5.9;100.0;102130;;;;
2023/02/20 04:05:04;;;;;;;1.8;1.8;;;;;;;5.9;100.0;102130;;;;
2023/02/20 04:06:03;;;;;;;1.8;1.8;;;;;;;5.9;100.0;102130;;;;
2023/02/20 04:07:03;;;;;;;1.8;1.8;;;;;;;5.9;100.0;102130;;;;
2023/02/20 04:08:07;;;;;;;1.8;1.8;;;;;;;5.9;100.0;102130;;;;
2023/02/20 04:09:00;;;;;;;1.8;1.8;;;;;;;6.0;100.0;102140;;;;
2023/02/20 04:10:02;;;;;;;1.8;1.8;;;;;;;6.0;100.0;102140;;;;
2023/02/20 04:11:04;;;;;;;1.8;1.8;;;;;;;6.0;100.0;102140;;;;
2023/02/20 04:12:05;;;;;;;1.8;1.8;;;;;;;6.0;100.0;102140;;;;
2023/02/20 04:13:01;;;;;;;1.8;1.8;;;;;;;6.0;100.0;102140;;;;
2023/02/20 04:14:01;;;;;;;1.8;1.8;;;;;;;6.0;100.0;102140;;;;
2023/02/20 04:15:01;;;;;;;1.8;1.8;;;;;;;6.0;100.0;102140;;;;
2023/02/20 04:16:01;;;;;;;1.8;1.8;;;;;;;6.0;100.0;102140;;;;
2023/02/20 04:17:04;;;;;;;1.8;1.8;;;;;;;6.0;100.0;102140;;;;
2023/02/20 04:18:06;;;;;;;1.8;1.8;;;;;;;6.0;100.0;102140;;;;
2023/02/20 04:19:00;;;;;;;1.8;1.8;;;;;;;6.1;100.0;102140;;;;
2023/02/20 04:20:00;;;;;;;1.8;1.8;;;;;;;6.1;100.0;102140;;;;
2023/02/20 04:21:03;;;;;;;1.8;1.8;;;;;;;6.1;100.0;102140;;;;
2023/02/20 04:22:02;;;;;;;1.8;1.8;;;;;;;6.1;100.0;102140;;;;
2023/02/20 04:23:04;;;;;;;1.8;1.8;;;;;;;6.2;100.0;102140;;;;
2023/02/20 04:24:04;;;;;;;1.8;1.8;;;;;;;6.2;100.0;102140;;;;
2023/02/20 04:25:02;;;;;;;1.4;1.4;;;;;;;6.2;100.0;102150;;;;
2023/02/20 04:26:03;;;;;;;1.4;1.4;;;;;;;6.2;100.0;102150;;;;
2023/02/20 04:27:00;;;;;;;1.4;1.4;;;;;;;6.2;100.0;102140;;;;
2023/02/20 04:28:01;;;;;;;1.4;1.4;;;;;;;6.2;100.0;102140;;;;
2023/02/20 04:29:00;;;;;;;1.4;1.4;;;;;;;6.1;100.0;102140;;;;
2023/02/20 04:30:00;;;;;;;1.4;1.4;;;;;;;6.1;100.0;102140;;;;
2023/02/20 04:31:00;;;;;;;1.4;1.4;;;;;;;6.1;100.0;102140;;;;
2023/02/20 04:32:00;;;;;;;1.4;1.4;;;;;;;6.1;100.0;102140;;;;
2023/02/20 04:33:00;;;;;;;1.4;1.4;;;;;;;6.1;100.0;102140;;;;
2023/02/20 04:34:00;;;;;;;1.4;1.4;;;;;;;6.1;100.0;102140;;;;
2023/02/20 04:35:00;;;;;;;1.4;1.4;;;;;;;6.1;100.0;102130;;;;
2023/02/20 04:36:01;;;;;;;1.4;1.4;;;;;;;6.1;100.0;102130;;;;
2023/02/20 04:37:05;;;;;;;1.4;1.4;;;;;;;6.1;100.0;102140;;;;
2023/02/20 04:38:00;;;;;;;1.4;1.4;;;;;;;6.1;100.0;102140;;;;
2023/02/20 04:39:00;;;;;;;1.4;1.4;;;;;;;6.1;100.0;102150;;;;
2023/02/20 04:40:00;;;;;;;1.4;1.4;;;;;;;6.1;100.0;102150;;;;
2023/02/20 04:41:00;;;;;;;1.4;1.4;;;;;;;6.1;100.0;102150;;;;
2023/02/20 04:42:00;;;;;;;1.4;1.4;;;;;;;6.1;100.0;102150;;;;
2023/02/20 04:43:00;;;;;;;1.4;1.4;;;;;;;6.1;100.0;102150;;;;
2023/02/20 04:45:00;;;;;;;1.8;1.8;;;;;;;6.2;100.0;102140;;;;
2023/02/20 04:46:00;;;;;;;1.8;1.8;;;;;;;6.2;100.0;102140;;;;
2023/02/20 04:47:01;;;;;;;1.8;1.8;;;;;;;6.2;100.0;102150;;;;
2023/02/20 04:48:00;;;;;;;1.8;1.8;;;;;;;6.2;100.0;102150;;;;
2023/02/20 04:49:00;;;;;;;1.8;1.8;;;;;;;6.1;100.0;102150;;;;
2023/02/20 04:50:00;;;;;;;1.8;1.8;;;;;;;6.1;100.0;102150;;;;
2023/02/20 04:51:03;;;;;;;1.8;1.8;;;;;;;6.2;100.0;102150;;;;
2023/02/20 04:52:00;;;;;;;1.8;1.8;;;;;;;6.2;100.0;102150;;;;
2023/02/20 04:53:00;;;;;;;1.8;1.8;;;;;;;6.3;100.0;102150;;;;
2023/02/20 04:54:00;;;;;;;1.8;1.8;;;;;;;6.3;100.0;102150;;;;
2023/02/20 04:55:00;;;;;;;1.8;1.8;;;;;;;6.2;100.0;102150;;;;
2023/02/20 04:56:00;;;;;;;1.8;1.8;;;;;;;6.2;100.0;102150;;;;
2023/02/20 04:57:00;;;;;;;1.8;1.8;;;;;;;6.2;100.0;102150;;;;
2023/02/20 04:58:00;;;;;;;1.8;1.8;;;;;;;6.2;100.0;102150;;;;
2023/02/20 04:59:00;;;;;;;1.8;1.8;;;;;;;6.3;100.0;102150;;;;
2023/02/20 05:00:00;;;;;;;1.8;1.8;;;;;;;6.3;100.0;102150;;;;
2023/02/20 05:01:00;;;;;;;1.8;1.8;;;;;;;6.3;100.0;102150;;;;
2023/02/20 05:02:00;;;;;;;1.8;1.8;;;;;;;6.3;100.0;102150;;;;
2023/02/20 05:03:00;;;;;;;1.8;1.8;;;;;;;6.2;100.0;102140;;;;
2023/02/20 05:04:00;;;;;;;1.8;1.8;;;;;;;6.2;100.0;102140;;;;
2023/02/20 05:05:00;;;;;;;1.8;1.8;;;;;;;6.2;100.0;102140;;;;
2023/02/20 05:06:00;;;;;;;1.8;1.8;;;;;;;6.2;100.0;102140;;;;
2023/02/20 05:07:00;;;;;;;1.8;1.8;;;;;;;6.3;100.0;102140;;;;
2023/02/20 05:08:02;;;;;;;1.8;1.8;;;;;;;6.3;100.0;102140;;;;
2023/02/20 05:09:00;;;;;;;1.8;1.8;;;;;;;6.2;100.0;102140;;;;
2023/02/20 05:10:00;;;;;;;1.8;1.8;;;;;;;6.2;100.0;102140;;;;
2023/02/20 05:11:00;;;;;;;1.8;1.8;;;;;;;6.2;100.0;102140;;;;
2023/02/20 05:12:00;;;;;;;1.8;1.8;;;;;;;6.2;100.0;102140;;;;
2023/02/20 05:13:01;;;;;;;1.8;1.8;;;;;;;6.3;100.0;102150;;;;
2023/02/20 05:14:01;;;;;;;1.8;1.8;;;;;;;6.3;100.0;102150;;;;
2023/02/20 05:15:00;;;;;;;1.8;1.8;;;;;;;6.3;100.0;102140;;;;
2023/02/20 05:16:00;;;;;;;1.8;1.8;;;;;;;6.3;100.0;102140;;;;
2023/02/20 05:17:00;;;;;;;1.8;1.8;;;;;;;6.4;100.0;102140;;;;
2023/02/20 05:18:00;;;;;;;1.8;1.8;;;;;;;6.4;100.0;102140;;;;
2023/02/20 05:19:00;;;;;;;1.8;1.8;;;;;;;6.3;100.0;102150;;;;
2023/02/20 05:20:00;;;;;;;1.8;1.8;;;;;;;6.3;100.0;102150;;;;
2023/02/20 05:23:00;;;;;;;1.8;1.8;;;;;;;6.3;100.0;102150;;;;
2023/02/20 05:24:00;;;;;;;1.8;1.8;;;;;;;6.3;100.0;102150;;;;
2023/02/20 05:25:00;;;;;;;2.3;2.2;;;;;;;6.3;100.0;102140;;;;
2023/02/20 05:26:00;;;;;;;2.3;2.2;;;;;;;6.3;100.0;102140;;;;
2023/02/20 05:27:00;;;;;;;2.3;2.2;;;;;;;6.3;100.0;102140;;;;
2023/02/20 05:28:00;;;;;;;2.3;2.2;;;;;;;6.3;100.0;102140;;;;
2023/02/20 05:29:00;;;;;;;2.3;2.2;;;;;;;6.3;100.0;102140;;;;
2023/02/20 05:30:01;;;;;;;2.3;2.2;;;;;;;6.3;100.0;102140;;;;
2023/02/20 05:31:00;;;;;;;2.3;2.2;;;;;;;6.4;100.0;102140;;;;
2023/02/20 05:32:00;;;;;;;2.3;2.2;;;;;;;6.4;100.0;102140;;;;
2023/02/20 05:33:00;;;;;;;2.3;2.2;;;;;;;6.5;100.0;102140;;;;
2023/02/20 05:34:00;;;;;;;2.3;2.2;;;;;;;6.5;100.0;102140;;;;
2023/02/20 05:35:00;;;;;;;2.3;2.2;;;;;;;6.5;100.0;102140;;;;
2023/02/20 05:36:00;;;;;;;2.3;2.2;;;;;;;6.5;100.0;102140;;;;
2023/02/20 05:37:00;;;;;;;2.3;2.2;;;;;;;6.5;100.0;102130;;;;
2023/02/20 05:38:00;;;;;;;2.3;2.2;;;;;;;6.5;100.0;102130;;;;
2023/02/20 05:39:00;;;;;;;2.3;2.2;;;;;;;6.5;100.0;102140;;;;
2023/02/20 05:40:00;;;;;;;2.3;2.2;;;;;;;6.5;100.0;102140;;;;
2023/02/20 05:41:00;;;;;;;2.3;2.2;;;;;;;6.4;100.0;102140;;;;
2023/02/20 05:42:00;;;;;;;2.3;2.2;;;;;;;6.4;100.0;102140;;;;
2023/02/20 05:43:00;;;;;;;2.3;2.2;;;;;;;6.4;100.0;102140;;;;
2023/02/20 05:44:00;;;;;;;2.3;2.2;;;;;;;6.4;100.0;102140;;;;
2023/02/20 05:45:01;;;;;;;1.9;1.9;;;;;;;6.4;100.0;102140;;;;
2023/02/20 05:46:00;;;;;;;1.9;1.9;;;;;;;6.4;100.0;102140;;;;
2023/02/20 05:47:01;;;;;;;1.9;1.9;;;;;;;6.5;100.0;102140;;;;
2023/02/20 05:48:00;;;;;;;1.9;1.9;;;;;;;6.5;100.0;102140;;;;
2023/02/20 05:49:00;;;;;;;1.9;1.9;;;;;;;6.5;100.0;102140;;;;
2023/02/20 05:50:00;;;;;;;1.9;1.9;;;;;;;6.5;100.0;102140;;;;
2023/02/20 05:51:00;;;;;;;1.9;1.9;;;;;;;6.6;100.0;102140;;;;
2023/02/20 05:52:01;;;;;;;1.9;1.9;;;;;;;6.6;100.0;102140;;;;
2023/02/20 05:53:00;;;;;;;1.9;1.9;;;;;;;6.6;100.0;102140;;;;
2023/02/20 05:54:00;;;;;;;1.9;1.9;;;;;;;6.6;100.0;102140;;;;
2023/02/20 05:55:00;;;;;;;1.9;1.9;;;;;;;6.6;100.0;102140;;;;
2023/02/20 05:56:00;;;;;;;1.9;1.9;;;;;;;6.6;100.0;102140;;;;
2023/02/20 05:57:02;;;;;;;1.9;1.9;;;;;;;6.6;100.0;102140;;;;
2023/02/20 05:58:00;;;;;;;1.9;1.9;;;;;;;6.6;100.0;102140;;;;
2023/02/20 05:59:01;;;;;;;1.9;1.9;;;;;;;6.6;100.0;102140;;;;
2023/02/20 06:00:00;;;;;;;1.9;1.9;;;;;;;6.6;100.0;102140;;;;
2023/02/20 06:01:00;;;;;;;1.9;1.9;;;;;;;6.6;100.0;102140;;;;
2023/02/20 06:02:00;;;;;;;1.9;1.9;;;;;;;6.6;100.0;102140;;;;
2023/02/20 06:03:00;;;;;;;1.9;1.9;;;;;;;6.6;100.0;102150;;;;
2023/02/20 06:04:00;;;;;;;1.8;1.8;;;;;;;6.6;100.0;102150;;;;
2023/02/20 06:05:00;;;;;;;1.8;1.8;;;;;;;6.5;100.0;102130;;;;
2023/02/20 06:06:00;;;;;;;1.8;1.8;;;;;;;6.5;100.0;102130;;;;
2023/02/20 06:07:00;;;;;;;1.8;1.8;;;;;;;6.5;100.0;102140;;;;
2023/02/20 06:08:00;;;;;;;1.8;1.8;;;;;;;6.5;100.0;102140;;;;
2023/02/20 06:09:00;;;;;;;1.8;1.8;;;;;;;6.6;100.0;102140;;;;
2023/02/20 06:10:00;;;;;;;1.8;1.8;;;;;;;6.6;100.0;102140;;;;
2023/02/20 06:11:00;;;;;;;1.8;1.8;;;;;;;6.6;100.0;102130;;;;
2023/02/20 06:12:00;;;;;;;1.8;1.8;;;;;;;6.6;100.0;102130;;;;
2023/02/20 06:13:00;;;;;;;1.8;1.8;;;;;;;6.6;100.0;102130;;;;
2023/02/20 06:14:00;;;;;;;1.8;1.8;;;;;;;6.6;100.0;102130;;;;
2023/02/20 06:15:00;;;;;;;1.8;1.8;;;;;;;6.6;100.0;102130;;;;
2023/02/20 06:16:00;;;;;;;1.8;1.8;;;;;;;6.6;100.0;102130;;;;
2023/02/20 06:17:00;;;;;;;1.8;1.8;;;;;;;6.7;100.0;102130;;;;
2023/02/20 06:18:00;;;;;;;1.8;1.8;;;;;;;6.7;100.0;102130;;;;
2023/02/20 06:19:00;;;;;;;1.8;1.8;;;;;;;6.7;100.0;102130;;;;
2023/02/20 06:20:00;;;;;;;1.8;1.8;;;;;;;6.7;100.0;102130;;;;
2023/02/20 06:21:00;;;;;;;1.8;1.8;;;;;;;6.7;100.0;102130;;;;
2023/02/20 06:22:00;;;;;;;1.8;1.8;;;;;;;6.7;100.0;102130;;;;
2023/02/20 06:23:00;;;;;;;1.8;1.8;;;;;;;6.6;100.0;102140;;;;
2023/02/20 06:24:00;;;;;;;1.5;1.5;;;;;;;6.6;100.0;102140;;;;
2023/02/20 06:25:00;;;;;;;1.5;1.5;;;;;;;6.7;100.0;102130;;;;
2023/02/20 06:26:00;;;;;;;1.5;1.5;;;;;;;6.7;100.0;102130;;;;
2023/02/20 06:27:00;;;;;;;1.5;1.5;;;;;;;6.6;100.0;102130;;;;
2023/02/20 06:28:00;;;;;;;1.5;1.5;;;;;;;6.6;100.0;102130;;;;
2023/02/20 06:29:00;;;;;;;1.5;1.5;;;;;;;6.6;100.0;102140;;;;
2023/02/20 06:30:00;;;;;;;1.5;1.5;;;;;;;6.6;100.0;102140;;;;
2023/02/20 06:31:02;;;;;;;1.5;1.5;;;;;;;6.6;100.0;102140;;;;
2023/02/20 06:32:00;;;;;;;1.5;1.5;;;;;;;6.6;100.0;102140;;;;
2023/02/20 06:33:00;;;;;;;1.5;1.5;;;;;;;6.7;100.0;102140;;;;
2023/02/20 06:34:00;;;;;;;1.5;1.5;;;;;;;6.7;100.0;102140;;;;
2023/02/20 06:35:00;;;;;;;1.5;1.5;;;;;;;6.7;100.0;102150;;;;
2023/02/20 06:36:00;;;;;;;1.5;1.5;;;;;;;6.7;100.0;102150;;;;
2023/02/20 06:37:03;;;;;;;1.5;1.5;;;;;;;6.6;100.0;102150;;;;
2023/02/20 06:38:00;;;;;;;1.5;1.5;;;;;;;6.6;100.0;102150;;;;
2023/02/20 06:39:00;;;;;;;1.5;1.5;;;;;;;6.5;100.0;102140;;;;
2023/02/20 06:40:00;;;;;;;1.5;1.5;;;;;;;6.5;100.0;102140;;;;
2023/02/20 06:41:00;;;;;;;1.5;1.5;;;;;;;6.5;100.0;102150;;;;
2023/02/20 06:42:00;;;;;;;1.5;1.5;;;;;;;6.5;100.0;102150;;;;
2023/02/20 06:43:00;;;;;;;1.5;1.5;;;;;;;6.5;100.0;102140;;;;
2023/02/20 06:44:00;;;;;;;2.1;2.1;;;;;;;6.5;100.0;102140;;;;
2023/02/20 06:45:00;;;;;;;2.1;2.1;;;;;;;6.6;100.0;102140;;;;
2023/02/20 06:46:00;;;;;;;2.1;2.1;;;;;;;6.6;100.0;102140;;;;
2023/02/20 06:47:00;;;;;;;2.1;2.1;;;;;;;6.6;100.0;102140;;;;